sensor_id;sensor_type;location;lat;lon;timestamp;noise_LAeq;noise_LA_min;noise_LA_max;noise_LA01;noise_LA95
76338;Laerm;20358;50.272;19.026;2023-07-13T00:01:54;48.69;39.57;67.35;;
76338;Laerm;20358;50.272;19.026;2023-07-13T00:05:05;48.11;37.66;72.87;;
76338;Laerm;20358;50.272;19.026;2023-07-13T00:08:12;44.78;37.80;68.34;;
76338;Laerm;20358;50.272;19.026;2023-07-13T00:11:27;45.02;35.70;67.20;;
76338;Laerm;20358;50.272;19.026;2023-07-13T00:14:35;45.05;35.04;57.59;;
76338;Laerm;20358;50.272;19.026;2023-07-13T00:17:44;43.50;34.36;60.68;;
76338;Laerm;20358;50.272;19.026;2023-07-13T00:20:55;45.33;35.77;67.75;;
76338;Laerm;20358;50.272;19.026;2023-07-13T00:24:13;42.72;33.38;58.94;;
76338;Laerm;20358;50.272;19.026;2023-07-13T00:27:26;42.80;33.14;60.14;;
76338;Laerm;20358;50.272;19.026;2023-07-13T00:30:35;46.38;34.35;62.73;;
76338;Laerm;20358;50.272;19.026;2023-07-13T00:33:45;39.36;33.23;57.05;;
76338;Laerm;20358;50.272;19.026;2023-07-13T00:36:55;44.10;33.54;60.84;;
76338;Laerm;20358;50.272;19.026;2023-07-13T00:40:06;42.94;36.07;55.79;;
76338;Laerm;20358;50.272;19.026;2023-07-13T00:43:21;36.81;33.22;52.60;;
76338;Laerm;20358;50.272;19.026;2023-07-13T00:46:33;44.05;33.13;63.27;;
76338;Laerm;20358;50.272;19.026;2023-07-13T00:49:40;42.03;35.14;58.27;;
76338;Laerm;20358;50.272;19.026;2023-07-13T00:52:55;40.71;33.25;55.59;;
76338;Laerm;20358;50.272;19.026;2023-07-13T00:56:03;42.78;33.12;58.23;;
76338;Laerm;20358;50.272;19.026;2023-07-13T00:59:15;39.81;33.09;53.52;;
76338;Laerm;20358;50.272;19.026;2023-07-13T01:02:24;40.57;35.14;50.09;;
76338;Laerm;20358;50.272;19.026;2023-07-13T01:05:36;40.65;33.61;54.22;;
76338;Laerm;20358;50.272;19.026;2023-07-13T01:08:46;41.14;33.49;61.14;;
76338;Laerm;20358;50.272;19.026;2023-07-13T01:11:54;42.00;36.52;59.03;;
76338;Laerm;20358;50.272;19.026;2023-07-13T01:15:32;43.56;34.22;61.93;;
76338;Laerm;20358;50.272;19.026;2023-07-13T01:18:34;46.18;35.32;62.69;;
76338;Laerm;20358;50.272;19.026;2023-07-13T01:21:51;41.97;34.41;56.05;;
76338;Laerm;20358;50.272;19.026;2023-07-13T01:24:59;49.00;38.30;71.22;;
76338;Laerm;20358;50.272;19.026;2023-07-13T01:28:08;42.06;34.46;68.59;;
76338;Laerm;20358;50.272;19.026;2023-07-13T01:31:17;39.69;33.51;64.82;;
76338;Laerm;20358;50.272;19.026;2023-07-13T01:34:24;45.23;36.66;66.01;;
76338;Laerm;20358;50.272;19.026;2023-07-13T01:37:35;42.47;33.88;66.65;;
76338;Laerm;20358;50.272;19.026;2023-07-13T01:40:43;40.98;33.83;54.67;;
76338;Laerm;20358;50.272;19.026;2023-07-13T01:43:52;42.02;36.24;56.32;;
76338;Laerm;20358;50.272;19.026;2023-07-13T01:47:03;41.76;32.89;58.72;;
76338;Laerm;20358;50.272;19.026;2023-07-13T01:50:12;39.25;33.13;65.57;;
76338;Laerm;20358;50.272;19.026;2023-07-13T01:53:22;45.10;34.72;59.57;;
76338;Laerm;20358;50.272;19.026;2023-07-13T01:56:29;41.93;33.61;64.85;;
76338;Laerm;20358;50.272;19.026;2023-07-13T01:59:36;42.66;34.87;64.10;;
76338;Laerm;20358;50.272;19.026;2023-07-13T02:02:44;40.46;34.10;60.06;;
76338;Laerm;20358;50.272;19.026;2023-07-13T02:05:51;45.47;36.98;62.70;;
76338;Laerm;20358;50.272;19.026;2023-07-13T02:09:02;43.23;35.88;57.16;;
76338;Laerm;20358;50.272;19.026;2023-07-13T02:12:10;40.94;34.04;57.15;;
76338;Laerm;20358;50.272;19.026;2023-07-13T02:15:20;43.40;35.67;54.05;;
76338;Laerm;20358;50.272;19.026;2023-07-13T02:18:29;43.44;33.46;61.09;;
76338;Laerm;20358;50.272;19.026;2023-07-13T02:21:38;43.75;33.57;57.04;;
76338;Laerm;20358;50.272;19.026;2023-07-13T02:24:51;43.63;34.77;55.43;;
76338;Laerm;20358;50.272;19.026;2023-07-13T02:27:59;43.87;34.92;59.45;;
76338;Laerm;20358;50.272;19.026;2023-07-13T02:31:10;44.87;36.93;61.58;;
76338;Laerm;20358;50.272;19.026;2023-07-13T02:34:22;43.68;33.29;56.30;;
76338;Laerm;20358;50.272;19.026;2023-07-13T02:37:34;46.08;34.07;60.34;;
76338;Laerm;20358;50.272;19.026;2023-07-13T02:40:46;41.67;33.65;57.10;;
76338;Laerm;20358;50.272;19.026;2023-07-13T02:43:57;46.33;33.49;61.20;;
76338;Laerm;20358;50.272;19.026;2023-07-13T02:47:08;45.59;37.20;60.01;;
76338;Laerm;20358;50.272;19.026;2023-07-13T02:50:22;45.69;33.89;60.69;;
76338;Laerm;20358;50.272;19.026;2023-07-13T02:53:31;48.56;37.45;63.00;;
76338;Laerm;20358;50.272;19.026;2023-07-13T02:56:43;48.89;35.43;63.12;;
76338;Laerm;20358;50.272;19.026;2023-07-13T02:59:51;47.93;36.96;61.53;;
76338;Laerm;20358;50.272;19.026;2023-07-13T03:02:59;48.66;34.74;63.59;;
76338;Laerm;20358;50.272;19.026;2023-07-13T03:06:07;46.58;34.50;67.82;;
76338;Laerm;20358;50.272;19.026;2023-07-13T03:09:24;47.63;35.58;59.55;;
76338;Laerm;20358;50.272;19.026;2023-07-13T03:12:37;46.11;36.77;57.62;;
76338;Laerm;20358;50.272;19.026;2023-07-13T03:15:49;44.90;35.12;59.00;;
76338;Laerm;20358;50.272;19.026;2023-07-13T03:18:58;49.61;35.67;61.80;;
76338;Laerm;20358;50.272;19.026;2023-07-13T03:22:06;49.48;38.00;63.40;;
76338;Laerm;20358;50.272;19.026;2023-07-13T03:25:16;49.30;36.56;62.66;;
76338;Laerm;20358;50.272;19.026;2023-07-13T03:28:28;49.12;37.10;65.00;;
76338;Laerm;20358;50.272;19.026;2023-07-13T03:31:37;50.18;38.67;62.05;;
76338;Laerm;20358;50.272;19.026;2023-07-13T03:34:44;50.21;40.01;61.46;;
76338;Laerm;20358;50.272;19.026;2023-07-13T03:37:52;50.62;40.32;62.17;;
76338;Laerm;20358;50.272;19.026;2023-07-13T03:41:05;53.71;40.22;72.60;;
76338;Laerm;20358;50.272;19.026;2023-07-13T03:44:16;53.94;43.56;68.42;;
76338;Laerm;20358;50.272;19.026;2023-07-13T03:47:28;51.28;40.78;63.01;;
76338;Laerm;20358;50.272;19.026;2023-07-13T03:50:41;51.35;38.34;62.85;;
76338;Laerm;20358;50.272;19.026;2023-07-13T03:53:48;54.86;41.22;69.77;;
76338;Laerm;20358;50.272;19.026;2023-07-13T03:56:57;51.16;39.11;60.03;;
76338;Laerm;20358;50.272;19.026;2023-07-13T04:00:12;50.98;41.26;61.23;;
76338;Laerm;20358;50.272;19.026;2023-07-13T04:03:20;49.64;38.78;62.20;;
76338;Laerm;20358;50.272;19.026;2023-07-13T04:06:31;52.96;41.51;72.79;;
76338;Laerm;20358;50.272;19.026;2023-07-13T04:09:39;52.19;40.63;66.71;;
76338;Laerm;20358;50.272;19.026;2023-07-13T04:12:47;51.33;40.12;62.08;;
76338;Laerm;20358;50.272;19.026;2023-07-13T04:15:57;48.81;41.16;58.55;;
76338;Laerm;20358;50.272;19.026;2023-07-13T04:19:04;50.52;41.95;59.54;;
76338;Laerm;20358;50.272;19.026;2023-07-13T04:22:12;50.18;39.23;62.70;;
76338;Laerm;20358;50.272;19.026;2023-07-13T04:25:20;51.18;40.09;63.19;;
76338;Laerm;20358;50.272;19.026;2023-07-13T04:28:28;51.72;41.86;62.00;;
76338;Laerm;20358;50.272;19.026;2023-07-13T04:31:37;53.18;41.08;69.48;;
76338;Laerm;20358;50.272;19.026;2023-07-13T04:34:45;52.03;44.66;63.71;;
76338;Laerm;20358;50.272;19.026;2023-07-13T04:37:56;50.51;39.35;58.57;;
76338;Laerm;20358;50.272;19.026;2023-07-13T04:41:07;50.38;41.71;58.05;;
76338;Laerm;20358;50.272;19.026;2023-07-13T04:44:14;51.22;41.06;59.86;;
76338;Laerm;20358;50.272;19.026;2023-07-13T04:47:25;51.94;44.39;62.05;;
76338;Laerm;20358;50.272;19.026;2023-07-13T04:50:32;54.23;41.40;76.06;;
76338;Laerm;20358;50.272;19.026;2023-07-13T04:53:40;52.95;39.42;65.38;;
76338;Laerm;20358;50.272;19.026;2023-07-13T04:56:47;50.67;41.65;73.11;;
76338;Laerm;20358;50.272;19.026;2023-07-13T04:59:56;53.81;41.56;71.10;;
76338;Laerm;20358;50.272;19.026;2023-07-13T05:03:16;53.08;42.76;81.96;;
76338;Laerm;20358;50.272;19.026;2023-07-13T05:06:25;53.62;46.20;65.45;;
76338;Laerm;20358;50.272;19.026;2023-07-13T05:09:34;52.82;43.91;61.18;;
76338;Laerm;20358;50.272;19.026;2023-07-13T05:12:42;52.37;42.55;63.27;;
76338;Laerm;20358;50.272;19.026;2023-07-13T05:15:57;51.83;42.84;63.14;;
76338;Laerm;20358;50.272;19.026;2023-07-13T05:19:09;54.27;43.70;67.18;;
76338;Laerm;20358;50.272;19.026;2023-07-13T05:22:16;52.22;43.00;60.72;;
76338;Laerm;20358;50.272;19.026;2023-07-13T05:25:25;53.21;42.81;61.78;;
76338;Laerm;20358;50.272;19.026;2023-07-13T05:28:33;53.28;44.58;63.48;;
76338;Laerm;20358;50.272;19.026;2023-07-13T05:31:41;52.06;43.93;64.15;;
76338;Laerm;20358;50.272;19.026;2023-07-13T05:34:52;54.42;44.04;69.41;;
76338;Laerm;20358;50.272;19.026;2023-07-13T05:38:12;54.25;44.66;70.52;;
76338;Laerm;20358;50.272;19.026;2023-07-13T05:41:20;54.88;47.15;72.76;;
76338;Laerm;20358;50.272;19.026;2023-07-13T05:44:28;54.01;44.60;68.26;;
76338;Laerm;20358;50.272;19.026;2023-07-13T05:47:37;50.94;43.91;58.26;;
76338;Laerm;20358;50.272;19.026;2023-07-13T05:50:48;52.58;42.93;62.04;;
76338;Laerm;20358;50.272;19.026;2023-07-13T05:53:58;51.23;42.56;59.66;;
76338;Laerm;20358;50.272;19.026;2023-07-13T05:57:06;51.47;44.24;60.81;;
76338;Laerm;20358;50.272;19.026;2023-07-13T06:00:15;50.67;43.10;58.83;;
76338;Laerm;20358;50.272;19.026;2023-07-13T06:03:25;52.06;42.08;65.89;;
76338;Laerm;20358;50.272;19.026;2023-07-13T06:06:36;51.55;43.50;64.45;;
76338;Laerm;20358;50.272;19.026;2023-07-13T06:09:44;52.93;43.13;69.33;;
76338;Laerm;20358;50.272;19.026;2023-07-13T06:12:52;51.76;43.88;59.21;;
76338;Laerm;20358;50.272;19.026;2023-07-13T06:16:02;51.74;44.07;59.17;;
76338;Laerm;20358;50.272;19.026;2023-07-13T06:19:12;52.87;43.56;67.31;;
76338;Laerm;20358;50.272;19.026;2023-07-13T06:22:23;54.34;41.57;70.89;;
76338;Laerm;20358;50.272;19.026;2023-07-13T06:25:33;54.46;44.94;68.65;;
76338;Laerm;20358;50.272;19.026;2023-07-13T06:28:47;51.98;42.76;69.86;;
76338;Laerm;20358;50.272;19.026;2023-07-13T06:31:54;51.35;42.05;62.48;;
76338;Laerm;20358;50.272;19.026;2023-07-13T06:35:03;52.33;45.15;61.37;;
76338;Laerm;20358;50.272;19.026;2023-07-13T06:38:19;51.62;41.60;80.77;;
76338;Laerm;20358;50.272;19.026;2023-07-13T06:41:28;51.38;41.59;59.20;;
76338;Laerm;20358;50.272;19.026;2023-07-13T06:44:39;53.53;42.52;68.77;;
76338;Laerm;20358;50.272;19.026;2023-07-13T06:47:47;50.88;41.13;75.11;;
76338;Laerm;20358;50.272;19.026;2023-07-13T06:50:55;52.55;45.68;65.03;;
76338;Laerm;20358;50.272;19.026;2023-07-13T06:54:08;52.17;42.50;60.29;;
76338;Laerm;20358;50.272;19.026;2023-07-13T06:57:17;49.87;39.98;59.25;;
76338;Laerm;20358;50.272;19.026;2023-07-13T07:00:25;50.78;41.01;57.68;;
76338;Laerm;20358;50.272;19.026;2023-07-13T07:03:32;51.85;43.08;65.00;;
76338;Laerm;20358;50.272;19.026;2023-07-13T07:06:42;50.47;41.33;61.66;;
76338;Laerm;20358;50.272;19.026;2023-07-13T07:09:56;51.20;42.27;62.84;;
76338;Laerm;20358;50.272;19.026;2023-07-13T07:13:04;54.37;42.89;72.65;;
76338;Laerm;20358;50.272;19.026;2023-07-13T07:16:13;48.70;41.39;60.42;;
76338;Laerm;20358;50.272;19.026;2023-07-13T07:19:21;51.38;42.61;67.89;;
76338;Laerm;20358;50.272;19.026;2023-07-13T07:22:28;51.09;40.41;63.03;;
76338;Laerm;20358;50.272;19.026;2023-07-13T07:25:39;52.93;44.20;68.11;;
76338;Laerm;20358;50.272;19.026;2023-07-13T07:28:46;51.99;41.67;69.75;;
76338;Laerm;20358;50.272;19.026;2023-07-13T07:32:13;52.80;42.87;68.37;;
76338;Laerm;20358;50.272;19.026;2023-07-13T07:35:40;52.63;42.47;69.66;;
76338;Laerm;20358;50.272;19.026;2023-07-13T07:39:08;52.43;40.56;69.06;;
76338;Laerm;20358;50.272;19.026;2023-07-13T07:42:18;54.69;41.92;70.59;;
76338;Laerm;20358;50.272;19.026;2023-07-13T07:45:26;51.40;43.49;71.87;;
76338;Laerm;20358;50.272;19.026;2023-07-13T07:48:34;50.93;42.17;59.08;;
76338;Laerm;20358;50.272;19.026;2023-07-13T07:51:43;51.24;42.41;61.98;;
76338;Laerm;20358;50.272;19.026;2023-07-13T07:54:51;56.26;42.41;77.98;;
76338;Laerm;20358;50.272;19.026;2023-07-13T07:58:05;53.65;42.86;69.67;;
76338;Laerm;20358;50.272;19.026;2023-07-13T08:01:32;51.25;41.10;59.78;;
76338;Laerm;20358;50.272;19.026;2023-07-13T08:04:43;50.34;40.84;58.80;;
76338;Laerm;20358;50.272;19.026;2023-07-13T08:07:56;49.45;42.19;59.23;;
76338;Laerm;20358;50.272;19.026;2023-07-13T08:11:06;50.95;42.97;58.38;;
76338;Laerm;20358;50.272;19.026;2023-07-13T08:14:21;48.87;40.35;59.22;;
76338;Laerm;20358;50.272;19.026;2023-07-13T08:17:47;50.04;41.96;61.59;;
76338;Laerm;20358;50.272;19.026;2023-07-13T08:20:55;50.82;40.64;61.22;;
76338;Laerm;20358;50.272;19.026;2023-07-13T08:24:04;53.48;42.67;68.84;;
76338;Laerm;20358;50.272;19.026;2023-07-13T08:27:13;51.29;42.87;63.00;;
76338;Laerm;20358;50.272;19.026;2023-07-13T08:30:23;52.43;43.25;67.74;;
76338;Laerm;20358;50.272;19.026;2023-07-13T08:33:31;50.76;43.12;60.40;;
76338;Laerm;20358;50.272;19.026;2023-07-13T08:36:39;53.79;43.00;70.08;;
76338;Laerm;20358;50.272;19.026;2023-07-13T08:39:47;51.34;44.39;59.71;;
76338;Laerm;20358;50.272;19.026;2023-07-13T08:42:59;50.90;43.67;58.86;;
76338;Laerm;20358;50.272;19.026;2023-07-13T08:46:16;50.54;41.19;60.46;;
76338;Laerm;20358;50.272;19.026;2023-07-13T08:49:27;52.77;45.29;66.00;;
76338;Laerm;20358;50.272;19.026;2023-07-13T08:52:43;52.09;44.31;62.11;;
76338;Laerm;20358;50.272;19.026;2023-07-13T08:55:59;51.85;44.84;64.75;;
76338;Laerm;20358;50.272;19.026;2023-07-13T08:59:15;51.82;43.93;65.99;;
76338;Laerm;20358;50.272;19.026;2023-07-13T09:02:46;51.65;43.13;65.70;;
76338;Laerm;20358;50.272;19.026;2023-07-13T09:05:59;52.86;44.16;67.27;;
76338;Laerm;20358;50.272;19.026;2023-07-13T09:09:23;54.21;43.45;68.11;;
76338;Laerm;20358;50.272;19.026;2023-07-13T09:12:51;50.60;44.36;61.96;;
76338;Laerm;20358;50.272;19.026;2023-07-13T09:16:04;52.70;44.96;64.98;;
76338;Laerm;20358;50.272;19.026;2023-07-13T09:19:26;55.39;45.78;72.12;;
76338;Laerm;20358;50.272;19.026;2023-07-13T09:22:40;54.25;44.16;71.57;;
76338;Laerm;20358;50.272;19.026;2023-07-13T09:25:53;52.37;44.57;65.85;;
76338;Laerm;20358;50.272;19.026;2023-07-13T09:29:23;51.52;45.19;63.30;;
76338;Laerm;20358;50.272;19.026;2023-07-13T09:32:37;51.84;44.85;69.90;;
76338;Laerm;20358;50.272;19.026;2023-07-13T09:35:52;57.81;48.49;80.01;;
76338;Laerm;20358;50.272;19.026;2023-07-13T09:39:11;55.09;48.32;67.60;;
76338;Laerm;20358;50.272;19.026;2023-07-13T09:42:26;55.62;48.68;75.45;;
76338;Laerm;20358;50.272;19.026;2023-07-13T09:45:37;54.93;48.45;70.70;;
76338;Laerm;20358;50.272;19.026;2023-07-13T09:48:45;56.85;49.94;73.73;;
76338;Laerm;20358;50.272;19.026;2023-07-13T09:52:05;58.03;49.98;78.54;;
76338;Laerm;20358;50.272;19.026;2023-07-13T09:55:31;57.88;49.25;75.93;;
76338;Laerm;20358;50.272;19.026;2023-07-13T09:58:39;58.13;47.72;82.16;;
76338;Laerm;20358;50.272;19.026;2023-07-13T10:01:49;57.96;48.46;76.97;;
76338;Laerm;20358;50.272;19.026;2023-07-13T10:05:00;58.73;49.65;82.51;;
76338;Laerm;20358;50.272;19.026;2023-07-13T10:08:25;57.33;48.91;79.62;;
76338;Laerm;20358;50.272;19.026;2023-07-13T10:11:36;60.12;52.46;79.64;;
76338;Laerm;20358;50.272;19.026;2023-07-13T10:14:48;61.08;54.27;78.49;;
76338;Laerm;20358;50.272;19.026;2023-07-13T10:17:59;62.22;54.99;80.51;;
76338;Laerm;20358;50.272;19.026;2023-07-13T10:21:18;64.64;55.73;83.00;;
76338;Laerm;20358;50.272;19.026;2023-07-13T10:24:35;65.85;59.77;85.26;;
76338;Laerm;20358;50.272;19.026;2023-07-13T10:27:47;65.63;59.30;87.47;;
76338;Laerm;20358;50.272;19.026;2023-07-13T10:31:01;69.39;62.52;85.91;;
76338;Laerm;20358;50.272;19.026;2023-07-13T10:34:12;69.25;61.68;84.51;;
76338;Laerm;20358;50.272;19.026;2023-07-13T10:37:27;66.74;60.29;92.80;;
76338;Laerm;20358;50.272;19.026;2023-07-13T10:40:45;65.45;59.26;88.52;;
76338;Laerm;20358;50.272;19.026;2023-07-13T10:43:58;64.50;57.83;87.17;;
76338;Laerm;20358;50.272;19.026;2023-07-13T10:47:15;62.98;56.25;80.80;;
76338;Laerm;20358;50.272;19.026;2023-07-13T10:50:28;62.75;55.64;81.12;;
76338;Laerm;20358;50.272;19.026;2023-07-13T10:53:40;62.49;55.46;85.34;;
76338;Laerm;20358;50.272;19.026;2023-07-13T10:57:08;62.48;53.65;79.73;;
76338;Laerm;20358;50.272;19.026;2023-07-13T11:00:24;61.87;53.42;85.24;;
76338;Laerm;20358;50.272;19.026;2023-07-13T11:03:34;59.49;52.61;74.74;;
76338;Laerm;20358;50.272;19.026;2023-07-13T11:06:50;59.10;51.70;71.16;;
76338;Laerm;20358;50.272;19.026;2023-07-13T11:14:02;57.69;50.12;75.70;;
76338;Laerm;20358;50.272;19.026;2023-07-13T11:17:49;57.70;48.61;70.35;;
76338;Laerm;20358;50.272;19.026;2023-07-13T11:21:26;55.54;46.35;68.67;;
76338;Laerm;20358;50.272;19.026;2023-07-13T11:25:00;57.45;50.02;69.07;;
76338;Laerm;20358;50.272;19.026;2023-07-13T11:28:22;57.33;50.19;67.49;;
76338;Laerm;20358;50.272;19.026;2023-07-13T11:31:36;58.11;49.63;73.01;;
76338;Laerm;20358;50.272;19.026;2023-07-13T11:34:50;55.96;45.52;68.77;;
76338;Laerm;20358;50.272;19.026;2023-07-13T11:37:57;55.44;49.51;69.45;;
76338;Laerm;20358;50.272;19.026;2023-07-13T11:41:14;56.20;47.50;71.40;;
76338;Laerm;20358;50.272;19.026;2023-07-13T11:44:26;55.22;47.14;72.03;;
76338;Laerm;20358;50.272;19.026;2023-07-13T11:47:42;55.63;44.92;68.96;;
76338;Laerm;20358;50.272;19.026;2023-07-13T11:50:59;53.86;44.17;69.11;;
76338;Laerm;20358;50.272;19.026;2023-07-13T11:54:25;53.63;44.07;70.73;;
76338;Laerm;20358;50.272;19.026;2023-07-13T11:57:41;53.32;46.11;69.70;;
76338;Laerm;20358;50.272;19.026;2023-07-13T12:00:59;52.42;42.29;65.94;;
76338;Laerm;20358;50.272;19.026;2023-07-13T12:04:23;53.88;44.13;63.21;;
76338;Laerm;20358;50.272;19.026;2023-07-13T12:07:34;53.62;43.99;63.85;;
76338;Laerm;20358;50.272;19.026;2023-07-13T12:10:42;53.90;44.67;66.48;;
76338;Laerm;20358;50.272;19.026;2023-07-13T12:13:52;53.42;45.17;64.74;;
76338;Laerm;20358;50.272;19.026;2023-07-13T12:17:00;52.35;42.30;62.21;;
76338;Laerm;20358;50.272;19.026;2023-07-13T12:20:27;53.34;43.17;63.14;;
76338;Laerm;20358;50.272;19.026;2023-07-13T12:23:38;52.88;44.99;63.00;;
76338;Laerm;20358;50.272;19.026;2023-07-13T12:26:52;54.60;42.70;66.56;;
76338;Laerm;20358;50.272;19.026;2023-07-13T12:30:06;52.90;43.01;64.72;;
76338;Laerm;20358;50.272;19.026;2023-07-13T12:33:29;54.65;42.66;68.70;;
76338;Laerm;20358;50.272;19.026;2023-07-13T12:36:48;55.04;45.82;68.48;;
76338;Laerm;20358;50.272;19.026;2023-07-13T12:39:57;56.76;46.32;80.09;;
76338;Laerm;20358;50.272;19.026;2023-07-13T12:43:04;55.76;45.67;67.89;;
76338;Laerm;20358;50.272;19.026;2023-07-13T12:46:19;54.92;43.02;67.37;;
76338;Laerm;20358;50.272;19.026;2023-07-13T12:49:30;55.86;44.76;67.09;;
76338;Laerm;20358;50.272;19.026;2023-07-13T12:52:49;54.56;41.78;67.08;;
76338;Laerm;20358;50.272;19.026;2023-07-13T12:56:03;54.56;48.02;63.71;;
76338;Laerm;20358;50.272;19.026;2023-07-13T12:59:20;54.49;42.60;66.23;;
76338;Laerm;20358;50.272;19.026;2023-07-13T13:02:34;55.07;43.25;73.30;;
76338;Laerm;20358;50.272;19.026;2023-07-13T13:05:42;54.07;43.94;65.79;;
76338;Laerm;20358;50.272;19.026;2023-07-13T13:08:55;54.71;46.44;62.12;;
76338;Laerm;20358;50.272;19.026;2023-07-13T13:12:04;54.14;44.92;66.05;;
76338;Laerm;20358;50.272;19.026;2023-07-13T13:15:23;54.29;46.59;61.29;;
76338;Laerm;20358;50.272;19.026;2023-07-13T13:18:34;54.49;45.18;61.82;;
76338;Laerm;20358;50.272;19.026;2023-07-13T13:21:46;53.94;47.41;63.06;;
76338;Laerm;20358;50.272;19.026;2023-07-13T13:24:57;55.47;44.72;69.94;;
76338;Laerm;20358;50.272;19.026;2023-07-13T13:28:15;53.59;44.81;67.41;;
76338;Laerm;20358;50.272;19.026;2023-07-13T13:31:24;54.69;44.31;64.17;;
76338;Laerm;20358;50.272;19.026;2023-07-13T13:34:31;54.00;45.61;63.94;;
76338;Laerm;20358;50.272;19.026;2023-07-13T13:37:41;54.46;45.58;69.83;;
76338;Laerm;20358;50.272;19.026;2023-07-13T13:40:51;54.87;43.77;73.47;;
76338;Laerm;20358;50.272;19.026;2023-07-13T13:43:59;53.48;46.35;65.98;;
76338;Laerm;20358;50.272;19.026;2023-07-13T13:47:30;53.69;47.33;63.13;;
76338;Laerm;20358;50.272;19.026;2023-07-13T13:50:41;54.47;46.34;62.21;;
76338;Laerm;20358;50.272;19.026;2023-07-13T13:53:50;53.36;44.26;63.81;;
76338;Laerm;20358;50.272;19.026;2023-07-13T13:57:01;54.19;43.98;65.34;;
76338;Laerm;20358;50.272;19.026;2023-07-13T14:00:13;53.75;45.89;62.84;;
76338;Laerm;20358;50.272;19.026;2023-07-13T14:03:22;54.39;46.07;61.61;;
76338;Laerm;20358;50.272;19.026;2023-07-13T14:06:29;53.76;47.37;63.49;;
76338;Laerm;20358;50.272;19.026;2023-07-13T14:09:37;53.69;45.57;63.00;;
76338;Laerm;20358;50.272;19.026;2023-07-13T14:12:52;53.91;45.51;66.09;;
76338;Laerm;20358;50.272;19.026;2023-07-13T14:16:01;52.65;43.53;62.41;;
76338;Laerm;20358;50.272;19.026;2023-07-13T14:19:14;54.35;44.69;63.47;;
76338;Laerm;20358;50.272;19.026;2023-07-13T14:22:24;52.77;41.76;61.82;;
76338;Laerm;20358;50.272;19.026;2023-07-13T14:25:32;54.50;43.41;64.64;;
76338;Laerm;20358;50.272;19.026;2023-07-13T14:28:48;54.02;43.71;62.79;;
76338;Laerm;20358;50.272;19.026;2023-07-13T14:32:00;52.70;43.22;61.74;;
76338;Laerm;20358;50.272;19.026;2023-07-13T14:35:11;54.08;44.41;66.25;;
76338;Laerm;20358;50.272;19.026;2023-07-13T14:38:20;53.70;44.92;65.65;;
76338;Laerm;20358;50.272;19.026;2023-07-13T14:41:29;53.81;45.23;62.07;;
76338;Laerm;20358;50.272;19.026;2023-07-13T14:44:40;54.62;47.11;75.18;;
76338;Laerm;20358;50.272;19.026;2023-07-13T14:47:51;53.79;44.96;69.14;;
76338;Laerm;20358;50.272;19.026;2023-07-13T14:51:00;54.77;45.41;63.66;;
76338;Laerm;20358;50.272;19.026;2023-07-13T14:54:09;55.24;46.15;66.28;;
76338;Laerm;20358;50.272;19.026;2023-07-13T14:57:19;53.82;43.37;62.57;;
76338;Laerm;20358;50.272;19.026;2023-07-13T15:00:30;53.88;43.63;64.59;;
76338;Laerm;20358;50.272;19.026;2023-07-13T15:03:45;53.46;44.44;61.42;;
76338;Laerm;20358;50.272;19.026;2023-07-13T15:06:58;54.81;45.64;74.20;;
76338;Laerm;20358;50.272;19.026;2023-07-13T15:10:19;54.40;43.93;73.56;;
76338;Laerm;20358;50.272;19.026;2023-07-13T15:13:28;54.24;44.78;67.61;;
76338;Laerm;20358;50.272;19.026;2023-07-13T15:16:50;54.10;45.83;67.71;;
76338;Laerm;20358;50.272;19.026;2023-07-13T15:20:16;53.65;44.99;62.82;;
76338;Laerm;20358;50.272;19.026;2023-07-13T15:23:28;53.99;43.65;66.04;;
76338;Laerm;20358;50.272;19.026;2023-07-13T15:26:37;52.02;41.90;60.41;;
76338;Laerm;20358;50.272;19.026;2023-07-13T15:29:47;54.26;46.24;67.86;;
76338;Laerm;20358;50.272;19.026;2023-07-13T15:33:18;53.66;45.66;62.00;;
76338;Laerm;20358;50.272;19.026;2023-07-13T15:36:27;53.45;43.00;65.39;;
76338;Laerm;20358;50.272;19.026;2023-07-13T15:39:38;53.70;45.53;71.92;;
76338;Laerm;20358;50.272;19.026;2023-07-13T15:42:45;53.35;43.32;65.64;;
76338;Laerm;20358;50.272;19.026;2023-07-13T15:45:56;53.03;43.11;62.17;;
76338;Laerm;20358;50.272;19.026;2023-07-13T15:49:11;53.93;44.58;64.87;;
76338;Laerm;20358;50.272;19.026;2023-07-13T15:52:23;53.11;41.07;66.84;;
76338;Laerm;20358;50.272;19.026;2023-07-13T15:55:33;53.89;42.78;65.00;;
76338;Laerm;20358;50.272;19.026;2023-07-13T15:58:45;53.19;42.33;67.31;;
76338;Laerm;20358;50.272;19.026;2023-07-13T16:01:52;52.48;43.48;61.45;;
76338;Laerm;20358;50.272;19.026;2023-07-13T16:05:05;52.62;44.75;63.99;;
76338;Laerm;20358;50.272;19.026;2023-07-13T16:08:24;52.31;44.18;62.69;;
76338;Laerm;20358;50.272;19.026;2023-07-13T16:11:36;52.89;43.95;62.59;;
76338;Laerm;20358;50.272;19.026;2023-07-13T16:14:44;51.44;43.07;61.31;;
76338;Laerm;20358;50.272;19.026;2023-07-13T16:17:52;51.31;40.81;62.85;;
76338;Laerm;20358;50.272;19.026;2023-07-13T16:21:02;53.41;43.71;63.50;;
76338;Laerm;20358;50.272;19.026;2023-07-13T16:24:18;51.91;42.56;63.86;;
76338;Laerm;20358;50.272;19.026;2023-07-13T16:27:27;53.83;45.01;66.81;;
76338;Laerm;20358;50.272;19.026;2023-07-13T16:30:36;52.65;41.79;61.98;;
76338;Laerm;20358;50.272;19.026;2023-07-13T16:33:44;52.74;41.25;64.98;;
76338;Laerm;20358;50.272;19.026;2023-07-13T16:36:56;52.94;41.61;65.66;;
76338;Laerm;20358;50.272;19.026;2023-07-13T16:40:21;51.75;40.06;63.74;;
76338;Laerm;20358;50.272;19.026;2023-07-13T16:43:29;52.42;43.99;62.30;;
76338;Laerm;20358;50.272;19.026;2023-07-13T16:46:36;52.51;39.35;63.03;;
76338;Laerm;20358;50.272;19.026;2023-07-13T16:49:46;52.52;42.29;65.37;;
76338;Laerm;20358;50.272;19.026;2023-07-13T16:52:57;52.46;42.02;63.78;;
76338;Laerm;20358;50.272;19.026;2023-07-13T16:56:17;52.12;39.91;65.49;;
76338;Laerm;20358;50.272;19.026;2023-07-13T16:59:32;50.98;40.45;62.01;;
76338;Laerm;20358;50.272;19.026;2023-07-13T17:02:40;51.50;41.75;65.82;;
76338;Laerm;20358;50.272;19.026;2023-07-13T17:05:47;51.00;39.45;60.07;;
76338;Laerm;20358;50.272;19.026;2023-07-13T17:08:58;51.43;41.26;61.25;;
76338;Laerm;20358;50.272;19.026;2023-07-13T17:12:10;53.20;40.57;66.30;;
76338;Laerm;20358;50.272;19.026;2023-07-13T17:15:19;54.41;41.36;68.49;;
76338;Laerm;20358;50.272;19.026;2023-07-13T17:18:32;51.83;40.57;64.61;;
76338;Laerm;20358;50.272;19.026;2023-07-13T17:21:41;53.23;42.21;64.70;;
76338;Laerm;20358;50.272;19.026;2023-07-13T17:24:51;52.32;41.20;60.44;;
76338;Laerm;20358;50.272;19.026;2023-07-13T17:28:03;50.97;39.37;58.92;;
76338;Laerm;20358;50.272;19.026;2023-07-13T17:31:20;51.35;39.13;60.63;;
76338;Laerm;20358;50.272;19.026;2023-07-13T17:34:28;50.82;40.39;62.76;;
76338;Laerm;20358;50.272;19.026;2023-07-13T17:37:35;49.81;38.78;59.21;;
76338;Laerm;20358;50.272;19.026;2023-07-13T17:40:48;51.51;40.10;63.46;;
76338;Laerm;20358;50.272;19.026;2023-07-13T17:43:55;50.32;38.38;60.10;;